createdAt,value
2022-11-26T00:00:58.218Z,98184.00
2022-11-26T00:03:06.487Z,98180.58
2022-11-26T00:05:13.451Z,98177.91
2022-11-26T00:07:19.113Z,98175.41
2022-11-26T00:09:25.223Z,98179.27
2022-11-26T00:11:28.454Z,98180.31
2022-11-26T00:13:31.597Z,98180.94
2022-11-26T00:15:34.410Z,98180.38
2022-11-26T00:17:37.219Z,98185.17
2022-11-26T00:19:44.316Z,98190.11
2022-11-26T00:21:47.098Z,98187.17
2022-11-26T00:23:50.629Z,98183.92
2022-11-26T00:25:57.461Z,98184.58
2022-11-26T00:28:00.243Z,98186.02
2022-11-26T00:30:14.297Z,98181.10
2022-11-26T00:32:22.402Z,98184.70
2022-11-26T00:34:25.341Z,98184.77
2022-11-26T00:36:31.727Z,98188.52
2022-11-26T00:38:34.892Z,98192.35
2022-11-26T00:40:37.768Z,98194.67
2022-11-26T00:42:40.601Z,98197.45
2022-11-26T00:44:43.384Z,98196.72
2022-11-26T00:46:46.502Z,98199.60
2022-11-26T00:48:49.751Z,98203.45
2022-11-26T00:50:52.543Z,98206.99
2022-11-26T00:52:56.745Z,98203.79
2022-11-26T00:55:00.249Z,98210.48
2022-11-26T00:57:03.104Z,98208.57
2022-11-26T00:59:06.275Z,98207.55
2022-11-26T01:01:12.449Z,98208.80
2022-11-26T01:03:15.450Z,98209.64
2022-11-26T01:05:19.617Z,98214.73
2022-11-26T01:07:22.522Z,98208.52
2022-11-26T01:09:25.423Z,98212.71
2022-11-26T01:11:28.204Z,98214.46
2022-11-26T01:13:32.222Z,98216.10
2022-11-26T01:15:35.005Z,98219.17
2022-11-26T01:17:37.830Z,98219.20
2022-11-26T01:19:40.684Z,98222.27
2022-11-26T01:21:43.547Z,98222.65
2022-11-26T01:23:46.804Z,98224.14
2022-11-26T01:25:49.758Z,98228.33
2022-11-26T01:27:54.008Z,98226.31
2022-11-26T01:29:56.786Z,98227.08
2022-11-26T01:31:59.595Z,98231.65
2022-11-26T01:34:02.426Z,98237.33
2022-11-26T01:36:29.673Z,98231.65
2022-11-26T01:38:32.536Z,98234.38
2022-11-26T01:41:08.535Z,98232.17
2022-11-26T01:43:17.344Z,98233.23
2022-11-26T01:45:23.321Z,98234.52
2022-11-26T01:47:29.153Z,98236.38
2022-11-26T01:49:34.905Z,98237.16
2022-11-26T01:51:37.675Z,98234.58
2022-11-26T01:53:47.867Z,98234.38
2022-11-26T01:55:58.891Z,98235.30
2022-11-26T01:58:03.808Z,98235.88
2022-11-26T02:00:07.337Z,98235.45
2022-11-26T02:02:10.415Z,98240.36
2022-11-26T02:04:17.696Z,98239.41
2022-11-26T02:06:24.925Z,98240.27
2022-11-26T02:08:30.346Z,98245.36
2022-11-26T02:10:34.618Z,98241.87
2022-11-26T02:12:38.225Z,98245.98
2022-11-26T02:14:44.126Z,98241.45
2022-11-26T02:17:19.849Z,98240.47
2022-11-26T02:19:34.732Z,98241.64
2022-11-26T02:21:43.112Z,98243.58
2022-11-26T02:24:22.163Z,98241.52
2022-11-26T02:26:46.998Z,98242.19
2022-11-26T02:29:17.174Z,98241.34
2022-11-26T02:31:32.063Z,98245.70
2022-11-26T02:33:51.236Z,98241.55
2022-11-26T02:35:58.495Z,98243.09
2022-11-26T02:38:09.449Z,98242.36
2022-11-26T02:40:12.581Z,98240.88
2022-11-26T02:42:30.725Z,98241.98
2022-11-26T02:44:45.048Z,98243.17
2022-11-26T02:46:50.941Z,98246.94
2022-11-26T02:48:54.277Z,98247.64
2022-11-26T02:51:01.922Z,98248.25
2022-11-26T02:53:06.743Z,98254.63
2022-11-26T02:55:12.737Z,98253.55
2022-11-26T02:57:18.496Z,98257.62
2022-11-26T02:59:21.548Z,98256.83
2022-11-26T03:01:31.910Z,98255.62
2022-11-26T03:03:47.158Z,98258.46
2022-11-26T03:05:57.816Z,98256.80
2022-11-26T03:08:02.537Z,98255.86
2022-11-26T03:10:06.533Z,98258.09
2022-11-26T03:12:09.613Z,98260.31
2022-11-26T03:14:12.423Z,98258.55
2022-11-26T03:16:16.241Z,98261.23
2022-11-26T03:18:19.067Z,98259.10
2022-11-26T03:20:22.027Z,98262.46
2022-11-26T03:22:24.877Z,98259.90
2022-11-26T03:24:27.689Z,98259.58
2022-11-26T03:26:30.518Z,98262.24
2022-11-26T03:28:33.359Z,98259.77
2022-11-26T03:30:36.163Z,98261.17
2022-11-26T03:32:38.929Z,98259.70
2022-11-26T03:34:43.048Z,98261.52
2022-11-26T03:36:46.112Z,98263.61
2022-11-26T03:38:48.897Z,98267.11
2022-11-26T03:41:02.166Z,98268.59
2022-11-26T03:43:05.081Z,98271.11
2022-11-26T03:45:08.462Z,98274.33
2022-11-26T03:47:11.252Z,98275.72
2022-11-26T03:49:14.051Z,98279.48
2022-11-26T03:51:16.894Z,98276.84
2022-11-26T03:53:19.690Z,98276.41
2022-11-26T03:55:22.466Z,98278.75
2022-11-26T03:57:25.361Z,98279.19
2022-11-26T03:59:28.223Z,98285.15
2022-11-26T04:01:31.093Z,98289.17
2022-11-26T04:03:34.032Z,98290.02
2022-11-26T04:05:36.872Z,98287.47
2022-11-26T04:07:39.780Z,98285.61
2022-11-26T04:09:42.733Z,98290.98
2022-11-26T04:11:45.449Z,98291.45
2022-11-26T04:13:48.282Z,98292.54
2022-11-26T04:15:51.285Z,98293.06
2022-11-26T04:17:54.121Z,98294.86
2022-11-26T04:19:56.975Z,98297.80
2022-11-26T04:21:59.770Z,98299.98
2022-11-26T04:24:02.553Z,98297.80
2022-11-26T04:26:05.578Z,98298.96
2022-11-26T04:28:08.284Z,98306.06
2022-11-26T04:30:11.549Z,98306.69
2022-11-26T04:32:14.354Z,98305.24
2022-11-26T04:34:17.208Z,98304.64
2022-11-26T04:36:19.976Z,98303.48
2022-11-26T04:38:25.939Z,98308.79
2022-11-26T04:40:29.171Z,98311.70
2022-11-26T04:42:31.951Z,98315.42
2022-11-26T04:44:34.668Z,98321.31
2022-11-26T04:46:37.558Z,98320.90
2022-11-26T04:48:40.329Z,98323.05
2022-11-26T04:50:43.119Z,98326.19
2022-11-26T04:52:48.601Z,98326.64
2022-11-26T04:54:51.453Z,98331.19
2022-11-26T04:56:54.217Z,98332.18
2022-11-26T04:58:57.004Z,98332.29
2022-11-26T05:00:59.866Z,98336.06
2022-11-26T05:03:02.792Z,98339.29
2022-11-26T05:05:06.095Z,98339.85
2022-11-26T05:07:08.918Z,98342.15
2022-11-26T05:09:11.825Z,98340.98
2022-11-26T05:11:14.870Z,98339.16
2022-11-26T05:13:17.643Z,98342.73
2022-11-26T05:15:20.740Z,98341.30
2022-11-26T05:17:23.541Z,98340.38
2022-11-26T05:19:26.810Z,98344.98
2022-11-26T05:21:29.642Z,98341.42
2022-11-26T05:23:32.486Z,98344.38
2022-11-26T05:25:35.269Z,98344.58
2022-11-26T05:27:38.071Z,98347.54
2022-11-26T05:29:40.891Z,98349.30
2022-11-26T05:31:44.104Z,98347.02
2022-11-26T05:33:47.256Z,98344.51
2022-11-26T05:35:49.963Z,98345.83
2022-11-26T05:37:52.753Z,98349.73
2022-11-26T05:39:55.655Z,98350.88
2022-11-26T05:41:58.481Z,98353.42
2022-11-26T05:44:01.258Z,98359.83
2022-11-26T05:46:06.384Z,98361.80
2022-11-26T05:48:09.273Z,98364.66
2022-11-26T05:50:12.109Z,98362.64
2022-11-26T05:52:15.041Z,98360.58
2022-11-26T05:54:17.824Z,98364.88
2022-11-26T05:56:20.695Z,98365.45
2022-11-26T05:58:23.505Z,98367.52
2022-11-26T06:00:27.078Z,98370.42
2022-11-26T06:02:29.946Z,98372.58
2022-11-26T06:04:33.063Z,98378.34
2022-11-26T06:06:35.967Z,98380.47
2022-11-26T06:08:38.771Z,98385.27
2022-11-26T06:10:42.836Z,98387.59
2022-11-26T06:12:45.626Z,98388.97
2022-11-26T06:14:48.795Z,98394.56
2022-11-26T06:16:51.958Z,98393.70
2022-11-26T06:18:54.950Z,98399.04
2022-11-26T06:21:01.794Z,98400.30
2022-11-26T06:23:04.925Z,98403.89
2022-11-26T06:25:09.934Z,98406.77
2022-11-26T06:27:12.724Z,98409.20
2022-11-26T06:29:15.489Z,98409.91
2022-11-26T06:31:18.434Z,98412.77
2022-11-26T06:33:21.428Z,98416.33
2022-11-26T06:35:24.257Z,98417.09
2022-11-26T06:37:27.041Z,98418.39
2022-11-26T06:39:29.890Z,98420.61
2022-11-26T06:41:32.852Z,98419.48
2022-11-26T06:43:36.238Z,98425.89
2022-11-26T06:45:39.096Z,98426.15
2022-11-26T06:47:41.978Z,98424.90
2022-11-26T06:49:44.842Z,98430.73
2022-11-26T06:51:47.657Z,98432.33
2022-11-26T06:53:50.439Z,98433.67
2022-11-26T06:55:53.204Z,98435.96
2022-11-26T06:57:55.999Z,98439.16
2022-11-26T06:59:58.770Z,98442.09
2022-11-26T07:02:01.880Z,98439.59
2022-11-26T07:04:05.470Z,98445.34
2022-11-26T07:06:22.774Z,98450.09
2022-11-26T07:08:25.837Z,98452.39
2022-11-26T07:10:29.280Z,98456.64
2022-11-26T07:12:32.295Z,98458.44
2022-11-26T07:14:35.819Z,98460.79
2022-11-26T07:16:39.052Z,98462.80
2022-11-26T07:18:42.196Z,98462.75
2022-11-26T07:20:45.001Z,98468.31
2022-11-26T07:22:47.879Z,98468.52
2022-11-26T07:24:50.760Z,98470.89
2022-11-26T07:26:53.591Z,98472.89
2022-11-26T07:28:56.349Z,98471.30
2022-11-26T07:31:04.791Z,98475.55
2022-11-26T07:33:07.825Z,98478.86
2022-11-26T07:35:10.642Z,98480.77
2022-11-26T07:37:13.449Z,98481.35
2022-11-26T07:39:16.251Z,98481.55
2022-11-26T07:41:20.561Z,98482.16
2022-11-26T07:43:23.391Z,98481.19
2022-11-26T07:45:26.734Z,98483.61
2022-11-26T07:47:29.498Z,98484.30
2022-11-26T07:49:32.299Z,98489.55
2022-11-26T07:51:37.022Z,98485.25
2022-11-26T07:53:39.784Z,98491.47
2022-11-26T07:57:23.146Z,98493.75
2022-11-26T07:59:25.970Z,98496.95
2022-11-26T08:01:32.239Z,98499.66
2022-11-26T08:03:41.818Z,98500.91
2022-11-26T08:05:45.824Z,98499.42
2022-11-26T08:07:48.732Z,98498.52
2022-11-26T08:09:51.642Z,98501.20
2022-11-26T08:11:54.471Z,98502.27
2022-11-26T08:14:02.776Z,98505.15
2022-11-26T08:16:05.880Z,98506.26
2022-11-26T08:18:08.689Z,98508.33
2022-11-26T08:20:11.779Z,98506.31
2022-11-26T08:22:14.590Z,98507.65
2022-11-26T08:24:19.876Z,98504.17
2022-11-26T08:26:29.079Z,98505.41
2022-11-26T08:28:36.207Z,98507.91
2022-11-26T08:30:38.991Z,98508.91
2022-11-26T08:32:41.758Z,98511.55
2022-11-26T08:34:44.537Z,98512.00
2022-11-26T08:36:47.308Z,98514.05
2022-11-26T08:38:50.209Z,98513.47
2022-11-26T08:40:54.538Z,98514.52
2022-11-26T08:42:57.342Z,98514.93
2022-11-26T08:45:00.087Z,98515.73
2022-11-26T08:47:02.954Z,98517.83
2022-11-26T08:49:06.607Z,98516.14
2022-11-26T08:51:11.941Z,98522.40
2022-11-26T08:53:15.591Z,98521.89
2022-11-26T08:55:23.721Z,98527.50
2022-11-26T08:57:26.998Z,98528.08
2022-11-26T08:59:29.731Z,98531.35
2022-11-26T09:01:34.104Z,98533.20
2022-11-26T09:03:37.959Z,98538.61
2022-11-26T09:05:40.793Z,98539.17
2022-11-26T09:07:47.754Z,98538.81
2022-11-26T09:09:51.893Z,98541.11
2022-11-26T09:11:59.963Z,98545.08
2022-11-26T09:14:03.261Z,98544.73
2022-11-26T09:16:06.318Z,98547.58
2022-11-26T09:18:09.112Z,98547.55
2022-11-26T09:20:12.818Z,98550.35
2022-11-26T09:22:15.588Z,98551.03
2022-11-26T09:24:18.511Z,98557.96
2022-11-26T09:26:21.869Z,98557.35
2022-11-26T09:28:24.705Z,98557.34
2022-11-26T09:30:27.445Z,98555.39
2022-11-26T09:32:34.178Z,98557.30
2022-11-26T09:34:37.721Z,98557.77
2022-11-26T09:36:41.125Z,98554.85
2022-11-26T09:38:44.365Z,98556.79
2022-11-26T09:41:05.520Z,98556.75
2022-11-26T09:43:34.536Z,98557.77
2022-11-26T09:45:44.573Z,98565.14
2022-11-26T09:47:52.509Z,98567.40
2022-11-26T09:50:13.493Z,98567.81
2022-11-26T09:52:20.360Z,98566.59
2022-11-26T09:54:25.147Z,98564.29
2022-11-26T09:56:28.182Z,98570.48
2022-11-26T09:58:36.858Z,98565.95
2022-11-26T10:00:44.072Z,98564.75
2022-11-26T10:02:47.120Z,98565.09
2022-11-26T10:04:49.898Z,98565.10
2022-11-26T10:07:01.633Z,98566.45
2022-11-26T10:09:26.449Z,98567.86
2022-11-26T10:11:49.206Z,98571.63
2022-11-26T10:14:10.307Z,98574.77
2022-11-26T10:16:29.652Z,98579.30
2022-11-26T10:18:50.061Z,98571.66
2022-11-26T10:21:12.683Z,98575.16
2022-11-26T10:23:36.386Z,98576.08
2022-11-26T10:25:45.350Z,98576.40
2022-11-26T10:27:49.637Z,98576.58
2022-11-26T10:29:59.336Z,98576.98
2022-11-26T10:32:20.690Z,98574.61
2022-11-26T10:34:43.058Z,98573.09
2022-11-26T10:36:48.331Z,98573.71
2022-11-26T10:38:53.190Z,98576.75
2022-11-26T10:40:55.924Z,98576.83
2022-11-26T10:43:10.821Z,98573.27
2022-11-26T10:45:20.990Z,98574.07
2022-11-26T10:47:31.697Z,98571.20
2022-11-26T10:49:34.779Z,98574.11
2022-11-26T10:51:37.790Z,98577.01
2022-11-26T10:53:55.444Z,98568.52
2022-11-26T10:56:01.282Z,98566.17
2022-11-26T10:58:07.770Z,98567.96
2022-11-26T11:00:31.216Z,98569.84
2022-11-26T11:02:41.519Z,98569.03
2022-11-26T11:04:46.492Z,98572.14
2022-11-26T11:06:49.656Z,98573.73
2022-11-26T11:08:53.800Z,98575.06
2022-11-26T11:10:59.099Z,98572.79
2022-11-26T11:13:12.966Z,98571.88
2022-11-26T11:15:21.614Z,98570.09
2022-11-26T11:17:30.936Z,98572.65
2022-11-26T11:19:35.515Z,98571.27
2022-11-26T11:21:43.866Z,98570.47
2022-11-26T11:24:08.288Z,98570.41
2022-11-26T11:26:24.871Z,98573.67
2022-11-26T11:28:33.708Z,98578.06
2022-11-26T11:30:38.100Z,98575.27
2022-11-26T11:32:40.963Z,98578.45
2022-11-26T11:34:44.475Z,98573.48
2022-11-26T11:37:02.236Z,98577.67
2022-11-26T11:39:05.514Z,98574.45
2022-11-26T11:41:17.874Z,98577.36
2022-11-26T11:43:23.779Z,98577.63
2022-11-26T11:45:41.234Z,98582.58
2022-11-26T11:47:44.446Z,98580.36
2022-11-26T11:50:14.852Z,98582.30
2022-11-26T11:52:17.619Z,98578.23
2022-11-26T11:54:31.137Z,98580.81
2022-11-26T11:56:41.716Z,98581.63
2022-11-26T11:59:12.358Z,98583.77
2022-11-26T12:01:18.104Z,98584.46
2022-11-26T12:04:15.069Z,98589.06
2022-11-26T12:06:41.084Z,98591.71
2022-11-26T12:08:55.861Z,98591.29
2022-11-26T12:11:10.502Z,98593.52
2022-11-26T12:13:15.056Z,98593.23
2022-11-26T12:15:53.773Z,98592.14
2022-11-26T12:18:11.991Z,98593.81
2022-11-26T12:20:22.605Z,98595.55
2022-11-26T12:22:52.223Z,98596.50
2022-11-26T12:25:01.689Z,98596.50
2022-11-26T12:27:16.382Z,98603.16
2022-11-26T12:29:34.469Z,98601.23
2022-11-26T12:31:43.693Z,98602.43
2022-11-26T12:33:53.258Z,98607.16
2022-11-26T12:36:00.789Z,98606.52
2022-11-26T12:38:17.245Z,98610.30
2022-11-26T12:40:32.655Z,98611.41
2022-11-26T12:42:47.238Z,98612.10
2022-11-26T12:44:52.544Z,98612.48
2022-11-26T12:47:14.244Z,98614.19
2022-11-26T12:49:23.329Z,98614.33
2022-11-26T12:51:35.623Z,98615.54
2022-11-26T12:53:49.627Z,98615.77
2022-11-26T12:56:08.344Z,98612.05
2022-11-26T12:58:15.582Z,98612.19
2022-11-26T13:00:29.100Z,98614.97
2022-11-26T13:02:38.216Z,98611.13
2022-11-26T13:04:41.069Z,98612.92
2022-11-26T13:07:14.646Z,98611.82
2022-11-26T13:09:39.035Z,98612.48
2022-11-26T13:11:55.283Z,98613.13
2022-11-26T13:14:14.597Z,98616.55
2022-11-26T13:16:29.821Z,98615.39
2022-11-26T13:18:47.788Z,98613.73
2022-11-26T13:21:03.624Z,98611.02
2022-11-26T13:23:24.935Z,98613.89
2022-11-26T13:28:15.356Z,98618.22
2022-11-26T13:30:51.168Z,98624.00
2022-11-26T13:33:21.457Z,98622.95
2022-11-26T13:35:59.807Z,98624.95
2022-11-26T13:38:24.767Z,98626.52
2022-11-26T13:40:47.290Z,98629.50
2022-11-26T13:43:04.112Z,98629.02
2022-11-26T13:45:16.349Z,98629.66
2022-11-26T13:47:42.167Z,98628.64
2022-11-26T13:49:49.649Z,98630.29
2022-11-26T13:52:17.966Z,98629.79
2022-11-26T13:54:32.417Z,98629.70
2022-11-26T13:56:37.241Z,98627.29
2022-11-26T13:58:52.274Z,98625.63
2022-11-26T14:00:55.415Z,98629.55
2022-11-26T14:03:00.250Z,98628.96
2022-11-26T14:05:08.902Z,98627.48
2022-11-26T14:07:11.739Z,98630.52
2022-11-26T14:09:44.871Z,98632.75
2022-11-26T14:11:50.304Z,98632.30
2022-11-26T14:14:25.078Z,98634.77
2022-11-26T14:17:14.044Z,98637.23
2022-11-26T14:19:16.871Z,98636.81
2022-11-26T14:21:20.803Z,98634.36
2022-11-26T14:23:45.532Z,98637.29
2022-11-26T14:25:48.427Z,98637.80
2022-11-26T14:27:55.686Z,98636.33
2022-11-26T14:30:07.624Z,98634.56
2022-11-26T14:32:17.610Z,98642.17
2022-11-26T14:34:31.305Z,98644.20
2022-11-26T14:36:35.061Z,98643.62
2022-11-26T14:38:37.982Z,98644.75
2022-11-26T14:40:40.846Z,98645.57
2022-11-26T14:42:43.745Z,98651.62
2022-11-26T14:44:46.561Z,98651.94
2022-11-26T14:46:59.282Z,98651.38
2022-11-26T14:49:05.233Z,98651.59
2022-11-26T14:51:09.012Z,98652.23
2022-11-26T14:53:12.478Z,98655.08
2022-11-26T14:55:15.386Z,98654.45
2022-11-26T14:57:43.271Z,98654.92
2022-11-26T15:00:00.911Z,98655.10
2022-11-26T15:02:04.029Z,98657.48
2022-11-26T15:04:07.209Z,98661.19
2022-11-26T15:06:28.494Z,98660.60
2022-11-26T15:08:31.473Z,98661.48
2022-11-26T15:10:38.381Z,98657.76
2022-11-26T15:12:43.015Z,98662.80
2022-11-26T15:14:54.054Z,98667.03
2022-11-26T15:17:01.265Z,98667.73
2022-11-26T15:19:06.566Z,98670.42
2022-11-26T15:21:17.403Z,98670.06
2022-11-26T15:23:28.075Z,98667.46
2022-11-26T15:25:34.509Z,98664.10
2022-11-26T15:27:40.445Z,98666.51
2022-11-26T15:29:49.654Z,98666.55
2022-11-26T15:31:52.491Z,98663.70
2022-11-26T15:33:55.572Z,98664.09
2022-11-26T15:36:00.586Z,98667.83
2022-11-26T15:38:21.549Z,98669.70
2022-11-26T15:40:42.534Z,98666.02
2022-11-26T15:42:47.164Z,98668.61
2022-11-26T15:44:50.069Z,98670.60
2022-11-26T15:46:55.490Z,98667.31
2022-11-26T15:49:03.779Z,98667.77
2022-11-26T15:51:09.322Z,98669.64
2022-11-26T15:53:20.105Z,98671.83
2022-11-26T15:55:29.926Z,98669.38
2022-11-26T15:57:36.740Z,98671.88
2022-11-26T15:59:44.032Z,98673.88
2022-11-26T16:01:47.623Z,98671.69
2022-11-26T16:03:52.965Z,98674.76
2022-11-26T16:05:56.654Z,98675.98
2022-11-26T16:08:02.750Z,98679.75
2022-11-26T16:10:19.379Z,98681.45
2022-11-26T16:12:32.353Z,98679.52
2022-11-26T16:14:36.541Z,98678.66
2022-11-26T16:16:39.970Z,98683.20
2022-11-26T16:18:52.010Z,98682.42
2022-11-26T16:21:04.023Z,98685.02
2022-11-26T16:23:06.975Z,98687.14
2022-11-26T16:25:24.436Z,98690.20
2022-11-26T16:27:29.380Z,98689.48
2022-11-26T16:29:35.833Z,98690.45
2022-11-26T16:31:38.674Z,98692.52
2022-11-26T16:33:42.044Z,98691.32
2022-11-26T16:35:46.504Z,98693.15
2022-11-26T16:37:49.835Z,98693.58
2022-11-26T16:40:01.801Z,98692.00
2022-11-26T16:42:14.065Z,98696.17
2022-11-26T16:44:16.852Z,98698.17
2022-11-26T16:46:23.834Z,98697.47
2022-11-26T16:48:27.801Z,98696.52
2022-11-26T16:50:30.945Z,98701.81
2022-11-26T16:52:36.099Z,98705.47
2022-11-26T16:54:39.225Z,98707.21
2022-11-26T16:56:42.721Z,98713.66
2022-11-26T16:58:45.975Z,98714.33
2022-11-26T17:00:51.820Z,98714.77
2022-11-26T17:02:54.948Z,98717.73
2022-11-26T17:04:57.988Z,98718.42
2022-11-26T17:07:00.875Z,98723.55
2022-11-26T17:09:03.797Z,98726.20
2022-11-26T17:11:06.703Z,98723.08
2022-11-26T17:13:09.558Z,98727.73
2022-11-26T17:15:13.175Z,98726.63
2022-11-26T17:17:25.014Z,98733.38
2022-11-26T17:19:28.197Z,98728.64
2022-11-26T17:21:31.057Z,98730.69
2022-11-26T17:23:34.752Z,98730.19
2022-11-26T17:25:37.585Z,98731.41
2022-11-26T17:27:41.812Z,98726.38
2022-11-26T17:29:45.579Z,98731.95
2022-11-26T17:31:48.567Z,98735.41
2022-11-26T17:33:51.520Z,98740.72
2022-11-26T17:35:54.371Z,98739.47
2022-11-26T17:37:57.637Z,98739.05
2022-11-26T17:40:00.568Z,98739.87
2022-11-26T17:42:03.643Z,98739.17
2022-11-26T17:44:06.455Z,98738.87
2022-11-26T17:46:14.869Z,98741.60
2022-11-26T17:48:17.766Z,98745.62
2022-11-26T17:50:23.265Z,98744.45
2022-11-26T17:52:26.210Z,98748.68
2022-11-26T17:54:29.069Z,98746.30
2022-11-26T17:56:31.910Z,98750.48
2022-11-26T17:58:34.847Z,98750.98
2022-11-26T18:00:37.691Z,98752.33
2022-11-26T18:02:41.123Z,98753.94
2022-11-26T18:04:44.040Z,98753.42
2022-11-26T18:06:58.891Z,98756.17
2022-11-26T18:09:01.781Z,98761.22
2022-11-26T18:11:04.841Z,98760.29
2022-11-26T18:13:07.677Z,98764.41
2022-11-26T18:15:18.208Z,98762.42
2022-11-26T18:17:21.602Z,98765.46
2022-11-26T18:19:24.486Z,98769.52
2022-11-26T18:21:27.307Z,98769.67
2022-11-26T18:23:30.818Z,98774.90
2022-11-26T18:25:34.999Z,98776.79
2022-11-26T18:27:38.031Z,98782.39
2022-11-26T18:29:41.193Z,98783.84
2022-11-26T18:31:44.346Z,98789.08
2022-11-26T18:33:47.233Z,98793.66
2022-11-26T18:35:51.266Z,98796.27
2022-11-26T18:37:54.141Z,98798.17
2022-11-26T18:39:57.219Z,98797.71
2022-11-26T18:42:29.488Z,98802.75
2022-11-26T18:44:23.449Z,98802.79
2022-11-26T18:46:26.303Z,98806.74
2022-11-26T18:48:29.218Z,98809.14
2022-11-26T18:50:32.088Z,98811.95
2022-11-26T18:52:35.229Z,98814.69
2022-11-26T18:54:38.125Z,98812.41
2022-11-26T18:56:40.961Z,98817.29
2022-11-26T18:58:45.069Z,98814.96
2022-11-26T19:00:49.416Z,98814.27
2022-11-26T19:02:52.617Z,98812.04
2022-11-26T19:04:55.434Z,98811.73
2022-11-26T19:06:58.312Z,98815.12
2022-11-26T19:09:07.550Z,98815.25
2022-11-26T19:11:17.415Z,98819.11
2022-11-26T19:13:20.414Z,98823.59
2022-11-26T19:15:23.252Z,98823.13
2022-11-26T19:17:26.032Z,98818.56
2022-11-26T19:19:28.828Z,98821.52
2022-11-26T19:21:33.573Z,98827.91
2022-11-26T19:23:36.427Z,98832.73
2022-11-26T19:25:39.210Z,98831.15
2022-11-26T19:27:43.052Z,98831.93
2022-11-26T19:29:45.841Z,98836.80
2022-11-26T19:31:48.593Z,98837.75
2022-11-26T19:33:56.787Z,98839.86
2022-11-26T19:36:07.021Z,98844.20
2022-11-26T19:38:09.796Z,98845.61
2022-11-26T19:40:13.036Z,98848.77
2022-11-26T19:42:15.903Z,98850.17
2022-11-26T19:44:18.703Z,98852.73
2022-11-26T19:46:24.056Z,98852.16
2022-11-26T19:48:27.654Z,98854.33
2022-11-26T19:50:30.551Z,98857.85
2022-11-26T19:52:33.319Z,98857.89
2022-11-26T19:54:36.379Z,98855.17
2022-11-26T19:56:39.323Z,98852.54
2022-11-26T19:58:42.332Z,98849.15
2022-11-26T20:00:45.111Z,98852.18
2022-11-26T20:02:48.028Z,98855.67
2022-11-26T20:04:50.951Z,98861.31
2022-11-26T20:06:54.399Z,98865.52
2022-11-26T20:09:00.805Z,98868.31
2022-11-26T20:11:06.033Z,98869.75
2022-11-26T20:13:10.355Z,98872.98
2022-11-26T20:15:13.073Z,98873.31
2022-11-26T20:17:15.942Z,98878.41
2022-11-26T20:19:19.406Z,98878.30
2022-11-26T20:21:26.246Z,98878.90
2022-11-26T20:23:29.100Z,98878.80
2022-11-26T20:25:37.045Z,98878.15
2022-11-26T20:27:40.105Z,98879.02
2022-11-26T20:29:42.915Z,98873.92
2022-11-26T20:31:48.206Z,98875.00
2022-11-26T20:33:52.973Z,98872.62
2022-11-26T20:35:56.388Z,98873.34
2022-11-26T20:37:59.211Z,98871.60
2022-11-26T20:40:02.032Z,98878.11
2022-11-26T20:42:04.947Z,98877.17
2022-11-26T20:44:09.239Z,98880.13
2022-11-26T20:46:14.320Z,98879.77
2022-11-26T20:48:18.945Z,98879.40
2022-11-26T20:50:22.058Z,98879.61
2022-11-26T20:52:25.051Z,98879.66
2022-11-26T20:54:27.991Z,98873.92
2022-11-26T20:56:31.012Z,98875.84
2022-11-26T20:58:35.087Z,98877.52
2022-11-26T21:00:42.227Z,98877.95
2022-11-26T21:02:45.996Z,98875.63
2022-11-26T21:04:48.871Z,98874.91
2022-11-26T21:06:51.775Z,98874.91
2022-11-26T21:08:54.553Z,98879.86
2022-11-26T21:10:57.357Z,98879.34
2022-11-26T21:13:00.093Z,98882.56
2022-11-26T21:15:03.094Z,98881.36
2022-11-26T21:17:06.196Z,98883.67
2022-11-26T21:19:12.913Z,98881.41
2022-11-26T21:21:17.627Z,98882.02
2022-11-26T21:23:20.792Z,98880.71
2022-11-26T21:25:23.709Z,98878.14
2022-11-26T21:27:26.516Z,98875.39
2022-11-26T21:29:29.387Z,98878.31
2022-11-26T21:31:32.390Z,98877.64
2022-11-26T21:33:35.210Z,98879.62
2022-11-26T21:35:38.060Z,98881.81
2022-11-26T21:37:40.830Z,98883.25
2022-11-26T21:39:43.819Z,98885.45
2022-11-26T21:41:46.646Z,98888.20
2022-11-26T21:43:50.115Z,98886.63
2022-11-26T21:45:52.911Z,98887.16
2022-11-26T21:47:55.775Z,98890.54
2022-11-26T21:49:58.544Z,98892.30
2022-11-26T21:52:01.589Z,98894.17
2022-11-26T21:54:04.644Z,98896.50
2022-11-26T21:56:14.750Z,98901.67
2022-11-26T21:58:17.494Z,98906.48
2022-11-26T22:00:21.069Z,98907.18
2022-11-26T22:02:24.062Z,98904.70
2022-11-26T22:04:26.983Z,98906.63
2022-11-26T22:06:30.219Z,98911.15
2022-11-26T22:08:34.280Z,98912.91
2022-11-26T22:10:37.365Z,98910.79
2022-11-26T22:12:40.109Z,98912.42
2022-11-26T22:14:42.873Z,98911.63
2022-11-26T22:16:47.942Z,98907.45
2022-11-26T22:18:51.832Z,98904.54
2022-11-26T22:20:54.689Z,98899.88
2022-11-26T22:22:57.454Z,98903.86
2022-11-26T22:25:00.234Z,98904.70
2022-11-26T22:27:03.032Z,98906.42
2022-11-26T22:29:06.621Z,98903.81
2022-11-26T22:31:21.775Z,98906.78
2022-11-26T22:33:24.914Z,98906.28
2022-11-26T22:35:27.663Z,98905.91
2022-11-26T22:37:30.489Z,98904.27
2022-11-26T22:39:33.316Z,98900.73
2022-11-26T22:41:36.492Z,98904.20
2022-11-26T22:43:40.258Z,98903.48
2022-11-26T22:45:43.113Z,98895.88
2022-11-26T22:47:49.970Z,98892.96
2022-11-26T22:49:55.455Z,98898.60
2022-11-26T22:51:58.283Z,98900.45
2022-11-26T22:54:09.751Z,98901.59
2022-11-26T22:56:12.545Z,98902.23
2022-11-26T22:58:15.794Z,98904.52
2022-11-26T23:00:46.984Z,98903.06
2022-11-26T23:02:49.950Z,98903.84
2022-11-26T23:04:53.855Z,98905.52
2022-11-26T23:06:56.575Z,98903.52
2022-11-26T23:09:00.789Z,98899.64
2022-11-26T23:11:12.068Z,98895.27
2022-11-26T23:13:16.198Z,98895.63
2022-11-26T23:15:18.962Z,98894.33
2022-11-26T23:17:21.756Z,98896.64
2022-11-26T23:19:24.533Z,98896.41
2022-11-26T23:21:33.597Z,98899.66
2022-11-26T23:23:37.584Z,98893.95
2022-11-26T23:25:41.677Z,98893.39
2022-11-26T23:27:59.167Z,98890.89
2022-11-26T23:30:01.984Z,98890.19
2022-11-26T23:32:04.887Z,98891.33
2022-11-26T23:34:08.723Z,98891.60
2022-11-26T23:36:12.663Z,98897.77
2022-11-26T23:38:15.569Z,98895.27
2022-11-26T23:40:18.403Z,98898.66
2022-11-26T23:42:21.970Z,98898.27
2022-11-26T23:44:24.829Z,98897.68
2022-11-26T23:46:32.455Z,98897.27
2022-11-26T23:48:35.927Z,98898.07
2022-11-26T23:50:40.087Z,98894.50
2022-11-26T23:52:43.057Z,98894.81
2022-11-26T23:54:45.908Z,98892.56
2022-11-26T23:56:49.112Z,98891.77
2022-11-26T23:58:54.281Z,98888.84
